»·PEaware :: N516TT KELP-KABQ

N516TT :: KELP-KABQ

FLIGHT INFORMATION

Flight Status: Arrived
Operator: Privately registered:
United States
More flights under this callsign
Pilot: Gareth S. (19921)
Aircraft: SOCATA TBM-900
(TBM9)
More flights by this aircraft type
Origin: KELP El Paso Intl
United States
Destination: KABQ Albuquerque Intl Sunport
United States
More flights between these airports :: More routes between these airports
Route: +ELP J86 RUTER TCS J13 ABQ
File this flight plan on PilotEdge
Remarks:
Altitude:
(Current/Filed)
30,000ft
Speed:
(Current/Filed)
230kts
Departed: 22-Feb-20 11:37 AM
Arrived: 22-Feb-20 12:54 PM
Distance/Time
Traveled:
194nm/1:17
Distance/Time
To Go:
Arrived

Flight Plot

Page will automatically refresh every two minutes.

Flight plan parsing failed; only flown route is shown


Map Options




Map Legend


Flown Route
Filed Route
Departure Airport
Arrival Airport
Navaid (VOR, NDB)
Fix

Horizontal Profiles

Position Reports

Time Latitude Longitude Heading Altitude Ground
Speed
22-Feb-20 10:57 31.794725 -106.384573 311 3935ft 0kts
22-Feb-20 10:58 31.794725 -106.384573 311 3935ft 0kts
22-Feb-20 10:59 31.794725 -106.384573 311 3935ft 0kts
22-Feb-20 11:00 31.794725 -106.384573 311 3935ft 0kts
22-Feb-20 11:01 31.794725 -106.384573 311 3935ft 0kts
22-Feb-20 11:02 31.794725 -106.384573 311 3935ft 0kts
22-Feb-20 11:03 31.794725 -106.384573 311 3935ft 0kts
22-Feb-20 11:04 31.794725 -106.384573 311 3935ft 0kts
22-Feb-20 11:05 31.794725 -106.384573 311 3935ft 0kts
22-Feb-20 11:06 31.794725 -106.384573 311 3935ft 0kts
22-Feb-20 11:07 31.794725 -106.384573 311 3935ft 0kts
22-Feb-20 11:08 31.794725 -106.384573 311 3935ft 0kts
22-Feb-20 11:09 31.794725 -106.384573 311 3935ft 0kts
22-Feb-20 11:10 31.794725 -106.384573 311 3935ft 0kts
22-Feb-20 11:11 31.794725 -106.384573 311 3935ft 0kts
22-Feb-20 11:12 31.794725 -106.384573 311 3935ft 0kts
22-Feb-20 11:13 31.794725 -106.384573 311 3935ft 0kts
22-Feb-20 11:14 31.794725 -106.384573 311 3935ft 0kts
22-Feb-20 11:15 31.794725 -106.384573 311 3935ft 0kts
22-Feb-20 11:16 31.794725 -106.384573 311 3935ft 0kts
22-Feb-20 11:17 31.794725 -106.384573 311 3935ft 0kts
22-Feb-20 11:18 31.794725 -106.384573 311 3935ft 0kts
22-Feb-20 11:19 31.794725 -106.384573 311 3935ft 0kts
22-Feb-20 11:20 31.794725 -106.384573 311 3935ft 0kts
22-Feb-20 11:21 31.794725 -106.384573 311 3935ft 0kts
22-Feb-20 11:22 31.794725 -106.384573 311 3935ft 0kts
22-Feb-20 11:23 31.794725 -106.384573 311 3935ft 0kts
22-Feb-20 11:24 31.794725 -106.384573 311 3935ft 0kts
22-Feb-20 11:25 31.794725 -106.384573 311 3935ft 0kts
22-Feb-20 11:26 31.794725 -106.384573 311 3935ft 0kts
22-Feb-20 11:27 31.794725 -106.384573 311 3935ft 0kts
22-Feb-20 11:28 31.795323 -106.384082 58 3936ft 6kts
22-Feb-20 11:29 31.796243 -106.380560 47 3937ft 12kts
22-Feb-20 11:30 31.798381 -106.377955 46 3940ft 13kts
22-Feb-20 11:31 31.799769 -106.375130 93 3943ft 15kts
22-Feb-20 11:32 31.799502 -106.370317 93 3949ft 10kts
22-Feb-20 11:33 31.799308 -106.365918 95 3950ft 16kts
22-Feb-20 11:34 31.799046 -106.360707 72 3946ft 10kts
22-Feb-20 11:35 31.799772 -106.360374 4 3945ft 0kts
22-Feb-20 11:36 31.800696 -106.362774 270 3948ft 62kts
22-Feb-20 11:37 31.802454 -106.403759 252 5110ft 145kts
22-Feb-20 11:38 31.769091 -106.430972 207 7415ft 153kts
22-Feb-20 11:39 31.733082 -106.453238 207 9599ft 151kts
22-Feb-20 11:41 31.696698 -106.473638 207 11767ft 142kts
22-Feb-20 11:42 31.710788 -106.505324 327 13679ft 173kts
22-Feb-20 11:43 31.755613 -106.522241 328 15621ft 163kts
22-Feb-20 11:44 31.803428 -106.537634 328 17336ft 206kts
22-Feb-20 11:45 31.856259 -106.557669 324 17909ft 190kts
22-Feb-20 11:46 31.906352 -106.575534 327 17351ft 191kts
22-Feb-20 11:47 31.956948 -106.591975 329 17231ft 174kts
22-Feb-20 11:48 32.007561 -106.607499 327 18810ft 200kts
22-Feb-20 11:49 32.061876 -106.623184 327 20582ft 209kts
22-Feb-20 11:50 32.099778 -106.654745 290 22529ft 167kts
22-Feb-20 11:51 32.130471 -106.695448 289 24217ft 173kts
22-Feb-20 11:52 32.162300 -106.737582 290 25767ft 175kts
22-Feb-20 11:53 32.195747 -106.781840 290 27598ft 178kts
22-Feb-20 11:54 32.228265 -106.824937 289 29109ft 174kts
22-Feb-20 11:55 32.259259 -106.866223 289 30277ft 181kts
22-Feb-20 11:56 32.305170 -106.906789 319 30727ft 224kts
22-Feb-20 11:57 32.365681 -106.929715 320 30383ft 236kts
22-Feb-20 11:57 32.418033 -106.949482 319 30434ft 234kts
22-Feb-20 11:59 32.490360 -106.976934 319 30365ft 236kts
22-Feb-20 12:00 32.550915 -106.999936 319 30322ft 234kts
22-Feb-20 12:01 32.613629 -107.023955 320 30405ft 245kts
22-Feb-20 12:01 32.668784 -107.044852 321 30225ft 249kts
22-Feb-20 12:03 32.745619 -107.074149 320 30259ft 248kts
22-Feb-20 12:03 32.800146 -107.094993 320 30258ft 248kts
22-Feb-20 12:04 32.863995 -107.119457 321 30269ft 254kts
22-Feb-20 12:06 32.944975 -107.150523 322 30277ft 268kts
22-Feb-20 12:06 33.004579 -107.173395 322 30262ft 273kts
22-Feb-20 12:07 33.077181 -107.201317 322 30265ft 276kts
22-Feb-20 12:08 33.149780 -107.229278 322 30247ft 276kts
22-Feb-20 12:09 33.221380 -107.256902 322 30247ft 275kts
22-Feb-20 12:10 33.297399 -107.277401 348 30224ft 315kts
22-Feb-20 12:11 33.385881 -107.253884 357 30255ft 326kts
22-Feb-20 12:12 33.474617 -107.230879 357 30215ft 328kts
22-Feb-20 12:13 33.563577 -107.207778 357 30237ft 331kts
22-Feb-20 12:14 33.654406 -107.184222 358 30270ft 352kts
22-Feb-20 12:15 33.751629 -107.158837 358 30259ft 362kts
22-Feb-20 12:16 33.850089 -107.133094 358 30236ft 365kts
22-Feb-20 12:17 33.949576 -107.107059 359 30233ft 367kts
22-Feb-20 12:18 34.049580 -107.080783 358 30243ft 367kts
22-Feb-20 12:19 34.146460 -107.055300 358 30217ft 367kts
22-Feb-20 12:20 34.245746 -107.029112 358 30226ft 366kts
22-Feb-20 12:21 34.345297 -107.002796 358 30254ft 367kts
22-Feb-20 12:22 34.445181 -106.976327 358 30240ft 368kts
22-Feb-20 12:23 34.543893 -106.950094 358 30312ft 367kts
22-Feb-20 12:24 34.641440 -106.915973 21 30075ft 388kts
22-Feb-20 12:25 34.704236 -106.818190 68 28101ft 374kts
22-Feb-20 12:26 34.743911 -106.706560 68 26096ft 352kts
22-Feb-20 12:27 34.786391 -106.605682 31 23959ft 334kts
22-Feb-20 12:28 34.866850 -106.572369 7 21999ft 290kts
22-Feb-20 12:29 34.939396 -106.546228 7 19594ft 280kts
22-Feb-20 12:30 35.013127 -106.525596 336 16977ft 253kts
22-Feb-20 12:31 35.074975 -106.557187 328 14555ft 237kts
22-Feb-20 12:32 35.133728 -106.590296 327 12072ft 228kts
22-Feb-20 12:33 35.180687 -106.616529 327 11984ft 163kts
22-Feb-20 12:34 35.221204 -106.638202 328 12026ft 166kts
22-Feb-20 12:35 35.264318 -106.661627 327 12015ft 167kts
22-Feb-20 12:36 35.307166 -106.685062 328 11976ft 167kts
22-Feb-20 12:37 35.349195 -106.708340 327 12022ft 166kts
22-Feb-20 12:38 35.361679 -106.746300 228 11671ft 154kts
22-Feb-20 12:39 35.332848 -106.786206 228 9797ft 161kts
22-Feb-20 12:40 35.304655 -106.826364 228 8901ft 134kts
22-Feb-20 12:41 35.280008 -106.861950 228 9020ft 140kts
22-Feb-20 12:42 35.253485 -106.898446 207 8986ft 146kts
22-Feb-20 12:43 35.210608 -106.898486 178 9054ft 164kts
22-Feb-20 12:44 35.163304 -106.896356 178 9032ft 179kts
22-Feb-20 12:45 35.113419 -106.894180 178 8425ft 178kts
22-Feb-20 12:46 35.068468 -106.881335 118 7408ft 162kts
22-Feb-20 12:47 35.048423 -106.832855 118 7476ft 163kts
22-Feb-20 12:48 35.039351 -106.780537 82 7556ft 164kts
22-Feb-20 12:49 35.044568 -106.727396 84 7532ft 130kts
22-Feb-20 12:50 35.045948 -106.692693 93 6667ft 109kts
22-Feb-20 12:51 35.044909 -106.657326 95 5929ft 99kts
22-Feb-20 12:52 35.044401 -106.623581 92 5372ft 96kts
22-Feb-20 12:53 35.044253 -106.604301 87 5317ft 28kts
22-Feb-20 12:54 35.043465 -106.596866 116 5318ft 13kts
22-Feb-20 12:55 35.043372 -106.596639 115 5318ft 0kts
22-Feb-20 12:56 35.043372 -106.596639 115 5318ft 0kts
22-Feb-20 12:57 35.042513 -106.598551 271 5315ft 23kts
22-Feb-20 12:58 35.042420 -106.605719 253 5315ft 8kts
22-Feb-20 12:59 35.042344 -106.610038 270 5315ft 19kts
22-Feb-20 13:00 35.040950 -106.613833 180 5311ft 14kts
22-Feb-20 13:01 35.036962 -106.614760 225 5311ft 14kts
22-Feb-20 13:02 35.036029 -106.617985 183 5308ft 0kts
22-Feb-20 13:03 35.036029 -106.617985 183 5308ft 0kts
22-Feb-20 13:04 35.036029 -106.617985 183 5308ft 0kts
22-Feb-20 13:05 35.036029 -106.617985 183 5308ft 0kts
22-Feb-20 13:06 35.036029 -106.617985 183 5308ft 0kts
22-Feb-20 13:07 35.036029 -106.617985 183 5308ft 0kts

Navigation Log

Ident Type
Flight plan parsing failed, navigation log unavailable